Necedah, Wisconsin
Current Conditions -  °F | °C
As of 1:58 AM on Friday 24 Oct 2014 (Local Time) from KVOK Reporting Station
Haze Haze  
Wind Chill: 46°   Ceiling: 200
Heat Index: 48°   Visibility: 5mi
Dew Point: 48°   Wind: 5mph
Humidity: 100%   Direction: 240°WSW
Pressure: 30.03"   Gusts: NA
Location:  44.03°N, 90.07°W
Report Text: KVOK 240658Z AUTO 24004KT 5SM BR OVC002 09/09 A3003 RMK AO2 SLP176 T00870087
Loading
Personal Weather Stations






























Interactive Weather Map New forecast layout! Learn more

10-Day Weather Forecast

Advertisements
Track Severe Weather on mobile